createdAt,value
2023-03-21T00:00:56.939Z,44.02
2023-03-21T00:03:27.866Z,44.04
2023-03-21T00:05:58.908Z,44.11
2023-03-21T00:08:29.841Z,44.16
2023-03-21T00:11:01.196Z,44.09
2023-03-21T00:13:33.342Z,44.21
2023-03-21T00:16:14.105Z,44.42
2023-03-21T00:18:53.270Z,44.24
2023-03-21T00:24:19.272Z,44.68
2023-03-21T00:26:50.057Z,44.50
2023-03-21T00:29:20.905Z,44.77
2023-03-21T00:31:51.785Z,44.74
2023-03-21T00:34:31.864Z,44.68
2023-03-21T00:37:16.870Z,44.91
2023-03-21T00:39:49.333Z,45.08
2023-03-21T00:42:20.400Z,45.04
2023-03-21T00:44:51.326Z,45.19
2023-03-21T00:47:24.133Z,45.18
2023-03-21T00:49:57.439Z,45.33
2023-03-21T00:52:40.258Z,45.22
2023-03-21T00:55:12.920Z,45.15
2023-03-21T00:57:50.141Z,45.44
2023-03-21T01:00:24.038Z,45.37
2023-03-21T01:03:08.453Z,45.66
2023-03-21T01:06:00.967Z,45.63
2023-03-21T01:08:44.613Z,45.71
2023-03-21T01:11:22.934Z,45.83
2023-03-21T01:14:04.186Z,46.13
2023-03-21T01:16:38.795Z,46.08
2023-03-21T01:19:22.035Z,46.26
2023-03-21T01:21:55.223Z,46.23
2023-03-21T01:24:26.058Z,46.46
2023-03-21T01:26:56.897Z,46.37
2023-03-21T01:29:27.694Z,46.55
2023-03-21T01:31:58.500Z,46.54
2023-03-21T01:34:30.158Z,46.75
2023-03-21T01:37:01.023Z,46.79
2023-03-21T01:39:35.097Z,46.95
2023-03-21T01:42:06.003Z,47.03
2023-03-21T01:44:50.162Z,47.11
2023-03-21T01:47:21.703Z,47.18
2023-03-21T01:49:53.092Z,47.06
2023-03-21T01:52:40.041Z,47.16
2023-03-21T01:55:13.361Z,47.25
2023-03-21T01:57:55.172Z,47.30
2023-03-21T02:00:29.714Z,47.25
2023-03-21T02:03:11.515Z,47.44
2023-03-21T02:05:45.946Z,47.76
2023-03-21T02:08:16.846Z,47.66
2023-03-21T02:10:50.414Z,47.93
2023-03-21T02:13:21.694Z,47.92
2023-03-21T02:15:54.490Z,48.00
2023-03-21T02:18:26.249Z,47.92
2023-03-21T02:21:13.065Z,48.17
2023-03-21T02:23:54.961Z,48.18
2023-03-21T02:26:46.524Z,48.49
2023-03-21T02:29:25.097Z,48.52
2023-03-21T02:32:05.984Z,48.62
2023-03-21T02:34:49.222Z,48.78
2023-03-21T02:37:28.856Z,48.83
2023-03-21T02:40:09.741Z,48.89
2023-03-21T02:42:48.879Z,49.04
2023-03-21T02:45:23.007Z,49.11
2023-03-21T02:47:54.566Z,49.30
2023-03-21T02:50:25.605Z,49.23
2023-03-21T02:52:56.664Z,49.17
2023-03-21T02:55:28.507Z,49.30
2023-03-21T02:58:11.748Z,49.39
2023-03-21T03:00:44.934Z,49.44
2023-03-21T03:03:28.094Z,49.50
2023-03-21T03:06:04.549Z,49.65
2023-03-21T03:08:45.083Z,49.65
2023-03-21T03:11:24.391Z,49.88
2023-03-21T03:14:21.018Z,49.72
2023-03-21T03:16:56.761Z,49.82
2023-03-21T03:19:29.219Z,49.91
2023-03-21T03:22:01.501Z,50.10
2023-03-21T03:24:32.927Z,50.05
2023-03-21T03:27:04.016Z,50.19
2023-03-21T03:29:35.204Z,50.21
2023-03-21T03:32:06.787Z,50.35
2023-03-21T03:34:39.665Z,50.27
2023-03-21T03:37:12.171Z,50.44
2023-03-21T03:39:43.768Z,50.54
2023-03-21T03:42:27.514Z,50.57
2023-03-21T03:44:59.165Z,50.66
2023-03-21T03:47:36.123Z,50.78
2023-03-21T03:50:10.345Z,50.90
2023-03-21T03:52:53.462Z,50.79
2023-03-21T03:55:27.332Z,50.81
2023-03-21T03:57:58.305Z,50.83
2023-03-21T04:00:29.480Z,50.92
2023-03-21T04:03:00.511Z,50.94
2023-03-21T04:05:31.294Z,51.27
2023-03-21T04:08:02.410Z,51.17
2023-03-21T04:10:33.182Z,51.16
2023-03-21T04:13:04.027Z,51.21
2023-03-21T04:15:34.857Z,51.36
2023-03-21T04:18:05.571Z,51.24
2023-03-21T04:20:37.502Z,51.31
2023-03-21T04:23:09.110Z,51.43
2023-03-21T04:25:47.669Z,51.72
2023-03-21T04:28:24.999Z,51.60
2023-03-21T04:31:03.703Z,51.80
2023-03-21T04:33:39.445Z,51.79
2023-03-21T04:36:26.188Z,51.89
2023-03-21T04:39:01.012Z,52.01
2023-03-21T04:41:32.140Z,52.08
2023-03-21T04:44:02.963Z,52.08
2023-03-21T04:46:34.031Z,52.04
2023-03-21T04:49:05.070Z,52.10
2023-03-21T04:51:36.004Z,52.05
2023-03-21T04:56:38.236Z,52.25
2023-03-21T04:59:09.955Z,52.38
2023-03-21T05:01:41.384Z,52.35
2023-03-21T05:04:12.454Z,52.60
2023-03-21T05:06:44.140Z,52.48
2023-03-21T05:09:15.028Z,52.53
2023-03-21T05:11:45.969Z,52.73
2023-03-21T05:14:17.470Z,52.78
2023-03-21T05:16:53.716Z,52.68
2023-03-21T05:19:26.034Z,52.70
2023-03-21T05:21:56.819Z,52.80
2023-03-21T05:24:27.661Z,52.85
2023-03-21T05:27:02.215Z,52.85
2023-03-21T05:29:33.704Z,52.94
2023-03-21T05:32:04.476Z,53.05
2023-03-21T05:34:35.260Z,53.03
2023-03-21T05:37:06.032Z,53.06
2023-03-21T05:39:36.848Z,52.93
2023-03-21T05:42:07.674Z,53.08
2023-03-21T05:44:40.540Z,53.20
2023-03-21T05:47:11.314Z,53.21
2023-03-21T05:49:42.329Z,53.19
2023-03-21T05:52:13.130Z,53.13
2023-03-21T05:54:44.033Z,53.10
2023-03-21T05:57:14.914Z,53.07
2023-03-21T05:59:46.036Z,53.12
2023-03-21T06:02:17.053Z,53.14
2023-03-21T06:04:47.991Z,53.02
2023-03-21T06:07:18.867Z,53.06
2023-03-21T06:09:49.871Z,53.14
2023-03-21T06:12:20.735Z,53.47
2023-03-21T06:14:51.524Z,53.40
2023-03-21T06:17:22.250Z,53.21
2023-03-21T06:19:53.101Z,53.44
2023-03-21T06:22:23.935Z,53.43
2023-03-21T06:24:54.723Z,53.36
2023-03-21T06:27:25.721Z,53.31
2023-03-21T06:29:58.184Z,53.41
2023-03-21T06:32:29.120Z,53.52
2023-03-21T06:35:00.085Z,53.54
2023-03-21T06:37:30.914Z,53.60
2023-03-21T06:40:01.795Z,53.66
2023-03-21T06:42:32.733Z,53.73
2023-03-21T06:45:03.603Z,53.72
2023-03-21T06:47:34.254Z,53.70
2023-03-21T06:50:07.304Z,53.66
2023-03-21T06:52:38.116Z,53.78
2023-03-21T06:55:10.467Z,53.76
2023-03-21T06:57:41.418Z,53.60
2023-03-21T07:00:13.513Z,53.57
2023-03-21T07:02:44.584Z,53.66
2023-03-21T07:05:15.582Z,53.58
2023-03-21T07:07:49.167Z,53.36
2023-03-21T07:10:20.132Z,53.33
2023-03-21T07:12:50.938Z,53.24
2023-03-21T07:15:22.024Z,53.50
2023-03-21T07:17:52.908Z,53.40
2023-03-21T07:20:23.706Z,53.35
2023-03-21T07:22:54.642Z,53.24
2023-03-21T07:25:25.523Z,53.29
2023-03-21T07:27:56.514Z,53.20
2023-03-21T07:30:27.328Z,53.45
2023-03-21T07:32:58.097Z,53.26
2023-03-21T07:35:28.901Z,53.36
2023-03-21T07:37:59.653Z,53.34
2023-03-21T07:40:30.466Z,53.36
2023-03-21T07:45:37.204Z,53.19
2023-03-21T07:48:08.633Z,53.20
2023-03-21T07:50:39.451Z,53.07
2023-03-21T07:53:10.423Z,53.22
2023-03-21T07:55:41.284Z,53.02
2023-03-21T07:58:12.155Z,53.05
2023-03-21T08:00:42.869Z,53.19
2023-03-21T08:03:13.686Z,53.07
2023-03-21T08:05:45.079Z,53.10
2023-03-21T08:08:15.965Z,53.03
2023-03-21T08:10:46.680Z,52.96
2023-03-21T08:13:17.706Z,52.82
2023-03-21T08:15:48.517Z,52.82
2023-03-21T08:18:19.509Z,52.86
2023-03-21T08:20:53.851Z,52.88
2023-03-21T08:23:24.934Z,52.89
2023-03-21T08:25:56.504Z,52.76
2023-03-21T08:28:27.356Z,52.79
2023-03-21T08:30:58.265Z,52.66
2023-03-21T08:33:29.063Z,52.71
2023-03-21T08:36:01.919Z,52.73
2023-03-21T08:38:33.683Z,52.70
2023-03-21T08:41:04.630Z,52.65
2023-03-21T08:43:35.723Z,52.62
2023-03-21T08:46:06.748Z,52.52
2023-03-21T08:48:41.597Z,52.55
2023-03-21T08:51:12.325Z,52.60
2023-03-21T08:53:44.181Z,52.49
2023-03-21T08:56:14.966Z,52.49
2023-03-21T08:58:45.850Z,52.54
2023-03-21T09:01:16.705Z,52.29
2023-03-21T09:03:47.522Z,52.27
2023-03-21T09:06:18.843Z,52.20
2023-03-21T09:08:53.617Z,52.21
2023-03-21T09:11:24.509Z,52.01
2023-03-21T09:13:55.435Z,52.01
2023-03-21T09:16:26.340Z,51.87
2023-03-21T09:18:59.298Z,51.79
2023-03-21T09:21:31.153Z,51.75
2023-03-21T09:24:02.929Z,51.71
2023-03-21T09:26:34.028Z,51.60
2023-03-21T09:29:06.075Z,51.49
2023-03-21T09:31:36.813Z,51.44
2023-03-21T09:34:07.743Z,51.37
2023-03-21T09:36:38.947Z,51.43
2023-03-21T09:39:09.706Z,51.17
2023-03-21T09:41:45.331Z,50.75
2023-03-21T09:44:23.116Z,50.60
2023-03-21T09:46:55.483Z,50.60
2023-03-21T09:49:31.373Z,50.66
2023-03-21T09:52:03.724Z,50.52
2023-03-21T09:54:35.831Z,50.49
2023-03-21T09:57:07.253Z,50.04
2023-03-21T09:59:40.337Z,49.73
2023-03-21T10:02:20.023Z,49.65
2023-03-21T10:04:51.331Z,49.82
2023-03-21T10:07:22.499Z,49.48
2023-03-21T10:09:53.759Z,49.39
2023-03-21T10:12:25.114Z,48.89
2023-03-21T10:14:58.134Z,48.35
2023-03-21T10:17:30.454Z,48.26
2023-03-21T10:20:11.609Z,48.15
2023-03-21T10:22:42.891Z,47.97
2023-03-21T10:25:15.093Z,47.98
2023-03-21T10:27:46.149Z,47.91
2023-03-21T10:30:21.686Z,47.65
2023-03-21T10:32:52.626Z,47.56
2023-03-21T10:35:23.442Z,47.31
2023-03-21T10:37:54.256Z,46.83
2023-03-21T10:40:25.138Z,46.56
2023-03-21T10:42:57.738Z,46.46
2023-03-21T10:45:28.771Z,46.67
2023-03-21T10:48:00.841Z,46.44
2023-03-21T10:50:31.712Z,46.47
2023-03-21T10:53:03.877Z,46.08
2023-03-21T10:55:35.063Z,45.87
2023-03-21T10:58:08.473Z,45.82
2023-03-21T11:00:41.537Z,45.64
2023-03-21T11:03:20.355Z,45.36
2023-03-21T11:05:54.423Z,45.30
2023-03-21T11:08:25.311Z,45.12
2023-03-21T11:11:01.452Z,45.13
2023-03-21T11:13:36.374Z,45.09
2023-03-21T11:16:08.961Z,45.03
2023-03-21T11:18:43.092Z,44.90
2023-03-21T11:21:14.120Z,44.73
2023-03-21T11:23:47.047Z,44.92
2023-03-21T11:26:20.103Z,44.67
2023-03-21T11:28:51.520Z,44.31
2023-03-21T11:31:25.048Z,44.15
2023-03-21T11:33:57.178Z,43.91
2023-03-21T11:36:34.978Z,44.20
2023-03-21T11:39:14.248Z,43.71
2023-03-21T11:41:45.089Z,43.67
2023-03-21T11:44:29.752Z,43.72
2023-03-21T11:47:00.999Z,43.40
2023-03-21T11:49:31.809Z,43.37
2023-03-21T11:52:16.272Z,43.37
2023-03-21T11:54:54.190Z,43.15
2023-03-21T11:57:29.792Z,43.18
2023-03-21T12:00:01.982Z,43.07
2023-03-21T12:02:55.268Z,43.01
2023-03-21T12:05:26.771Z,43.04
2023-03-21T12:07:59.537Z,42.86
2023-03-21T12:10:37.517Z,42.91
2023-03-21T12:13:13.779Z,42.54
2023-03-21T12:15:45.269Z,42.51
2023-03-21T12:18:18.186Z,42.60
2023-03-21T12:20:48.998Z,42.66
2023-03-21T12:23:39.342Z,42.38
2023-03-21T12:26:20.337Z,42.35
2023-03-21T12:29:00.052Z,42.29
2023-03-21T12:31:51.178Z,42.51
2023-03-21T12:34:28.875Z,42.31
2023-03-21T12:37:08.239Z,42.19
2023-03-21T12:39:40.471Z,42.26
2023-03-21T12:42:29.714Z,42.28
2023-03-21T12:45:06.274Z,42.21
2023-03-21T12:47:42.839Z,42.07
2023-03-21T12:50:15.846Z,41.94
2023-03-21T12:52:47.721Z,41.87
2023-03-21T12:55:20.452Z,41.85
2023-03-21T12:57:57.667Z,41.76
2023-03-21T13:00:30.010Z,41.87
2023-03-21T13:03:02.972Z,41.91
2023-03-21T13:05:36.206Z,41.79
2023-03-21T13:08:08.471Z,41.63
2023-03-21T13:10:39.643Z,41.53
2023-03-21T13:13:13.676Z,41.58
2023-03-21T13:15:50.826Z,41.39
2023-03-21T13:18:24.794Z,41.41
2023-03-21T13:20:56.374Z,41.48
2023-03-21T13:23:27.550Z,41.41
2023-03-21T13:25:58.654Z,41.60
2023-03-21T13:28:30.210Z,41.37
2023-03-21T13:31:14.420Z,41.27
2023-03-21T13:33:45.933Z,41.18
2023-03-21T13:36:17.893Z,41.22
2023-03-21T13:38:52.246Z,41.20
2023-03-21T13:41:23.918Z,41.20
2023-03-21T13:43:55.656Z,41.25
2023-03-21T13:46:52.552Z,41.12
2023-03-21T13:49:32.866Z,41.17
2023-03-21T13:52:04.055Z,41.07
2023-03-21T13:54:51.160Z,41.28
2023-03-21T13:57:38.417Z,41.28
2023-03-21T14:00:20.755Z,41.27
2023-03-21T14:02:56.399Z,41.14
2023-03-21T14:05:27.692Z,41.25
2023-03-21T14:08:12.419Z,41.11
2023-03-21T14:10:46.948Z,40.99
2023-03-21T14:13:19.271Z,40.98
2023-03-21T14:15:55.962Z,41.03
2023-03-21T14:18:51.830Z,41.15
2023-03-21T14:21:24.214Z,41.08
2023-03-21T14:23:59.221Z,41.06
2023-03-21T14:26:30.809Z,40.90
2023-03-21T14:29:02.769Z,40.84
2023-03-21T14:31:34.831Z,40.92
2023-03-21T14:34:05.680Z,40.91
2023-03-21T14:36:43.218Z,40.93
2023-03-21T14:39:17.623Z,40.73
2023-03-21T14:41:49.759Z,40.74
2023-03-21T14:44:25.732Z,40.74
2023-03-21T14:47:01.836Z,40.88
2023-03-21T14:49:33.314Z,40.98
2023-03-21T14:52:06.698Z,41.15
2023-03-21T14:54:38.364Z,41.23
2023-03-21T14:57:12.402Z,41.30
2023-03-21T14:59:43.248Z,41.28
2023-03-21T15:02:16.774Z,41.17
2023-03-21T15:04:50.264Z,41.03
2023-03-21T15:07:28.633Z,41.01
2023-03-21T15:10:01.097Z,41.12
2023-03-21T15:12:31.968Z,41.12
2023-03-21T15:15:03.306Z,41.12
2023-03-21T15:17:34.143Z,41.19
2023-03-21T15:20:08.968Z,41.24
2023-03-21T15:22:40.416Z,41.17
2023-03-21T15:25:12.850Z,41.14
2023-03-21T15:27:43.511Z,41.29
2023-03-21T15:30:21.049Z,41.32
2023-03-21T15:32:51.837Z,41.44
2023-03-21T15:35:23.185Z,41.54
2023-03-21T15:37:58.014Z,41.71
2023-03-21T15:40:29.659Z,41.83
2023-03-21T15:43:13.780Z,42.03
2023-03-21T15:45:49.412Z,42.06
2023-03-21T15:48:20.370Z,42.13
2023-03-21T15:50:51.910Z,42.35
2023-03-21T15:53:22.718Z,42.44
2023-03-21T15:55:54.119Z,42.59
2023-03-21T15:58:25.624Z,42.66
2023-03-21T16:00:57.223Z,42.76
2023-03-21T16:03:29.046Z,42.80
2023-03-21T16:06:16.270Z,42.92
2023-03-21T16:08:47.682Z,43.00
2023-03-21T16:11:25.729Z,43.08
2023-03-21T16:13:56.933Z,43.15
2023-03-21T16:16:28.470Z,43.22
2023-03-21T16:19:00.007Z,43.32
2023-03-21T16:21:31.523Z,43.44
2023-03-21T16:24:03.237Z,43.54
2023-03-21T16:26:35.002Z,43.63
2023-03-21T16:29:08.525Z,43.81
2023-03-21T16:31:39.426Z,43.75
2023-03-21T16:34:10.916Z,43.87
2023-03-21T16:36:43.577Z,43.98
2023-03-21T16:39:17.050Z,44.04
2023-03-21T16:41:48.095Z,44.09
2023-03-21T16:44:18.949Z,44.13
2023-03-21T16:46:49.674Z,44.21
2023-03-21T16:49:21.950Z,44.29
2023-03-21T16:51:52.815Z,44.38
2023-03-21T16:54:23.822Z,44.41
2023-03-21T16:56:54.983Z,44.45
2023-03-21T16:59:25.810Z,44.55
2023-03-21T17:01:56.671Z,44.61
2023-03-21T17:04:27.686Z,44.62
2023-03-21T17:06:58.531Z,44.65
2023-03-21T17:09:29.404Z,44.77
2023-03-21T17:12:00.367Z,44.76
2023-03-21T17:14:33.509Z,44.78
2023-03-21T17:17:04.649Z,44.75
2023-03-21T17:19:35.619Z,44.82
2023-03-21T17:22:06.475Z,44.80
2023-03-21T17:24:37.600Z,44.86
2023-03-21T17:27:09.332Z,44.86
2023-03-21T17:29:40.207Z,44.91
2023-03-21T17:32:11.116Z,44.98
2023-03-21T17:34:41.937Z,45.10
2023-03-21T17:37:13.266Z,45.10
2023-03-21T17:39:45.459Z,45.09
2023-03-21T17:42:18.341Z,45.13
2023-03-21T17:44:49.269Z,45.13
2023-03-21T17:47:20.038Z,45.23
2023-03-21T17:49:50.914Z,45.16
2023-03-21T17:52:22.008Z,45.34
2023-03-21T17:54:53.556Z,45.29
2023-03-21T17:57:25.776Z,45.43
2023-03-21T17:59:57.058Z,45.48
2023-03-21T18:02:27.873Z,45.54
2023-03-21T18:04:58.751Z,45.60
2023-03-21T18:07:58.320Z,45.65
2023-03-21T18:10:21.713Z,45.72
2023-03-21T18:12:56.066Z,45.90
2023-03-21T18:15:30.059Z,45.99
2023-03-21T18:18:01.504Z,46.00
2023-03-21T18:20:51.340Z,46.17
2023-03-21T18:23:23.098Z,46.24
2023-03-21T18:25:54.165Z,46.51
2023-03-21T18:28:24.926Z,46.47
2023-03-21T18:31:17.994Z,46.59
2023-03-21T18:33:50.301Z,46.76
2023-03-21T18:36:25.578Z,46.80
2023-03-21T18:38:57.587Z,46.89
2023-03-21T18:41:29.567Z,46.88
2023-03-21T18:44:05.804Z,46.98
2023-03-21T18:46:47.560Z,47.11
2023-03-21T18:50:05.438Z,47.24
2023-03-21T18:52:09.814Z,47.36
2023-03-21T18:54:40.846Z,47.31
2023-03-21T19:00:09.459Z,47.49
2023-03-21T19:02:45.490Z,47.50
2023-03-21T19:05:17.981Z,47.64
2023-03-21T19:07:49.240Z,47.63
2023-03-21T19:10:20.910Z,47.59
2023-03-21T19:12:52.583Z,47.69
2023-03-21T19:15:24.471Z,47.81
2023-03-21T19:20:47.919Z,48.03
2023-03-21T19:23:21.109Z,47.94
2023-03-21T19:25:52.326Z,47.94
2023-03-21T19:28:23.125Z,48.08
2023-03-21T19:30:56.272Z,48.08
2023-03-21T19:33:27.200Z,48.16
2023-03-21T19:36:12.997Z,48.13
2023-03-21T19:38:44.304Z,48.18
2023-03-21T19:41:15.078Z,48.25
2023-03-21T19:43:54.227Z,48.25
2023-03-21T19:46:26.692Z,48.41
2023-03-21T19:48:57.777Z,48.47
2023-03-21T19:51:30.391Z,48.39
2023-03-21T19:54:01.856Z,48.44
2023-03-21T19:56:34.572Z,48.47
2023-03-21T19:59:07.027Z,48.51
2023-03-21T20:01:38.054Z,48.51
2023-03-21T20:04:09.213Z,48.62
2023-03-21T20:06:39.997Z,48.68
2023-03-21T20:09:49.444Z,48.70
2023-03-21T20:12:02.711Z,48.68
2023-03-21T20:14:33.585Z,48.78
2023-03-21T20:17:04.828Z,48.75
2023-03-21T20:19:35.614Z,48.73
2023-03-21T20:22:19.959Z,48.79
2023-03-21T20:24:55.314Z,48.88
2023-03-21T20:27:26.182Z,48.92
2023-03-21T20:30:12.286Z,48.98
2023-03-21T20:32:43.940Z,49.13
2023-03-21T20:35:21.083Z,49.12
2023-03-21T20:38:02.132Z,49.16
2023-03-21T20:40:32.929Z,49.25
2023-03-21T20:43:32.032Z,49.33
2023-03-21T20:46:02.014Z,49.41
2023-03-21T20:48:32.885Z,49.46
2023-03-21T20:51:39.897Z,49.61
2023-03-21T20:53:56.715Z,49.65
2023-03-21T20:56:27.484Z,49.83
2023-03-21T20:59:12.117Z,49.94
2023-03-21T21:01:47.083Z,50.01
2023-03-21T21:04:20.187Z,50.22
2023-03-21T21:06:51.372Z,50.31
2023-03-21T21:09:22.247Z,50.43
2023-03-21T21:12:06.586Z,50.60
2023-03-21T21:14:39.033Z,50.72
2023-03-21T21:17:28.312Z,50.78
2023-03-21T21:20:01.760Z,50.90
2023-03-21T21:22:32.560Z,50.91
2023-03-21T21:25:03.268Z,51.03
2023-03-21T21:27:34.156Z,51.08
2023-03-21T21:30:05.257Z,51.13
2023-03-21T21:32:36.713Z,51.21
2023-03-21T21:35:07.949Z,51.27
2023-03-21T21:37:42.073Z,51.33
2023-03-21T21:40:15.810Z,51.38
2023-03-21T21:42:46.474Z,51.44
2023-03-21T21:45:18.519Z,51.52
2023-03-21T21:47:49.399Z,51.59
2023-03-21T21:50:22.359Z,51.60
2023-03-21T21:52:54.769Z,51.73
2023-03-21T21:55:25.534Z,51.79
2023-03-21T21:57:58.212Z,51.90
2023-03-21T22:00:30.816Z,51.86
2023-03-21T22:03:02.128Z,52.01
2023-03-21T22:05:33.127Z,51.97
2023-03-21T22:08:04.210Z,52.03
2023-03-21T22:10:35.039Z,52.05
2023-03-21T22:13:05.874Z,52.20
2023-03-21T22:15:36.726Z,52.38
2023-03-21T22:18:07.594Z,52.30
2023-03-21T22:20:38.580Z,52.39
2023-03-21T22:23:09.637Z,52.48
2023-03-21T22:25:40.430Z,52.57
2023-03-21T22:28:11.179Z,52.67
2023-03-21T22:30:42.089Z,52.75
2023-03-21T22:33:12.771Z,52.83
2023-03-21T22:35:43.662Z,52.96
2023-03-21T22:38:14.492Z,53.07
2023-03-21T22:40:45.326Z,53.17
2023-03-21T22:43:18.695Z,53.19
2023-03-21T22:45:49.475Z,53.37
2023-03-21T22:48:20.765Z,53.48
2023-03-21T22:50:51.646Z,53.60
2023-03-21T22:53:22.461Z,53.74
2023-03-21T22:55:53.216Z,53.79
2023-03-21T22:58:24.088Z,53.99
2023-03-21T23:00:54.799Z,54.09
2023-03-21T23:03:25.631Z,54.10
2023-03-21T23:05:59.868Z,54.22
2023-03-21T23:08:30.751Z,54.34
2023-03-21T23:11:06.561Z,54.32
2023-03-21T23:13:37.701Z,54.41
2023-03-21T23:16:09.160Z,54.63
2023-03-21T23:18:43.161Z,54.69
2023-03-21T23:21:16.703Z,54.90
2023-03-21T23:23:49.884Z,55.06
2023-03-21T23:26:20.856Z,55.02
2023-03-21T23:28:51.698Z,55.10
2023-03-21T23:31:23.390Z,55.12
2023-03-21T23:33:54.413Z,55.32
2023-03-21T23:36:25.194Z,55.31
2023-03-21T23:38:55.932Z,55.40
2023-03-21T23:41:26.795Z,55.57
2023-03-21T23:43:57.521Z,55.69
2023-03-21T23:46:28.355Z,55.80
2023-03-21T23:48:59.145Z,55.81
2023-03-21T23:51:30.016Z,55.92
2023-03-21T23:54:00.732Z,56.03
2023-03-21T23:56:32.516Z,56.11
2023-03-21T23:59:03.814Z,56.04
